sensor_id;sensor_type;location;lat;lon;timestamp;P1;durP1;ratioP1;P2;durP2;ratioP2
74707;SDS011;63360;50.104;8.074;2022-12-10T00:01:33;14.77;;;5.95;;
74707;SDS011;63360;50.104;8.074;2022-12-10T00:04:00;17.67;;;6.63;;
74707;SDS011;63360;50.104;8.074;2022-12-10T00:06:28;17.02;;;6.47;;
74707;SDS011;63360;50.104;8.074;2022-12-10T00:08:55;14.63;;;6.03;;
74707;SDS011;63360;50.104;8.074;2022-12-10T00:11:22;17.40;;;6.57;;
74707;SDS011;63360;50.104;8.074;2022-12-10T00:13:49;18.15;;;6.90;;
74707;SDS011;63360;50.104;8.074;2022-12-10T00:16:18;19.23;;;7.78;;
74707;SDS011;63360;50.104;8.074;2022-12-10T00:18:47;15.98;;;6.15;;
74707;SDS011;63360;50.104;8.074;2022-12-10T00:21:15;16.60;;;6.93;;
74707;SDS011;63360;50.104;8.074;2022-12-10T00:23:44;20.08;;;7.95;;
74707;SDS011;63360;50.104;8.074;2022-12-10T00:26:13;22.10;;;7.63;;
74707;SDS011;63360;50.104;8.074;2022-12-10T00:28:41;18.00;;;7.13;;
74707;SDS011;63360;50.104;8.074;2022-12-10T00:31:09;22.73;;;8.00;;
74707;SDS011;63360;50.104;8.074;2022-12-10T00:33:38;17.27;;;6.73;;
74707;SDS011;63360;50.104;8.074;2022-12-10T00:36:09;17.52;;;6.88;;
74707;SDS011;63360;50.104;8.074;2022-12-10T00:38:38;18.58;;;7.15;;
74707;SDS011;63360;50.104;8.074;2022-12-10T00:41:05;18.48;;;7.57;;
74707;SDS011;63360;50.104;8.074;2022-12-10T00:43:32;19.42;;;7.28;;
74707;SDS011;63360;50.104;8.074;2022-12-10T00:45:59;18.67;;;7.60;;
74707;SDS011;63360;50.104;8.074;2022-12-10T00:48:25;20.30;;;7.65;;
74707;SDS011;63360;50.104;8.074;2022-12-10T00:50:59;20.75;;;8.10;;
74707;SDS011;63360;50.104;8.074;2022-12-10T00:53:27;22.27;;;8.25;;
74707;SDS011;63360;50.104;8.074;2022-12-10T00:55:55;22.27;;;7.75;;
74707;SDS011;63360;50.104;8.074;2022-12-10T00:58:22;20.83;;;8.03;;
74707;SDS011;63360;50.104;8.074;2022-12-10T01:00:49;19.80;;;7.05;;
74707;SDS011;63360;50.104;8.074;2022-12-10T01:03:16;19.45;;;7.40;;
74707;SDS011;63360;50.104;8.074;2022-12-10T01:05:42;21.25;;;7.47;;
74707;SDS011;63360;50.104;8.074;2022-12-10T01:08:08;20.40;;;7.25;;
74707;SDS011;63360;50.104;8.074;2022-12-10T01:10:35;20.17;;;8.03;;
74707;SDS011;63360;50.104;8.074;2022-12-10T01:13:02;17.98;;;6.72;;
74707;SDS011;63360;50.104;8.074;2022-12-10T01:15:29;19.58;;;7.72;;
74707;SDS011;63360;50.104;8.074;2022-12-10T01:17:55;18.90;;;7.07;;
74707;SDS011;63360;50.104;8.074;2022-12-10T01:20:21;18.10;;;7.22;;
74707;SDS011;63360;50.104;8.074;2022-12-10T01:22:48;19.47;;;7.17;;
74707;SDS011;63360;50.104;8.074;2022-12-10T01:25:14;20.13;;;7.05;;
74707;SDS011;63360;50.104;8.074;2022-12-10T01:27:41;22.38;;;7.93;;
74707;SDS011;63360;50.104;8.074;2022-12-10T01:30:07;18.60;;;7.18;;
74707;SDS011;63360;50.104;8.074;2022-12-10T01:32:35;19.75;;;7.72;;
74707;SDS011;63360;50.104;8.074;2022-12-10T01:35:02;20.63;;;7.67;;
74707;SDS011;63360;50.104;8.074;2022-12-10T01:37:28;18.20;;;7.38;;
74707;SDS011;63360;50.104;8.074;2022-12-10T01:39:54;18.50;;;6.97;;
74707;SDS011;63360;50.104;8.074;2022-12-10T01:42:21;19.17;;;7.10;;
74707;SDS011;63360;50.104;8.074;2022-12-10T01:47:13;17.30;;;6.73;;
74707;SDS011;63360;50.104;8.074;2022-12-10T01:49:40;17.05;;;6.43;;
74707;SDS011;63360;50.104;8.074;2022-12-10T01:52:08;18.08;;;6.57;;
74707;SDS011;63360;50.104;8.074;2022-12-10T01:54:39;19.10;;;7.22;;
74707;SDS011;63360;50.104;8.074;2022-12-10T01:59:46;19.80;;;6.43;;
74707;SDS011;63360;50.104;8.074;2022-12-10T02:05:10;16.58;;;5.78;;
74707;SDS011;63360;50.104;8.074;2022-12-10T02:07:58;16.75;;;6.97;;
74707;SDS011;63360;50.104;8.074;2022-12-10T02:10:52;15.35;;;5.60;;
74707;SDS011;63360;50.104;8.074;2022-12-10T02:13:26;18.27;;;6.50;;
74707;SDS011;63360;50.104;8.074;2022-12-10T02:16:00;17.67;;;6.82;;
74707;SDS011;63360;50.104;8.074;2022-12-10T02:21:06;19.75;;;7.25;;
74707;SDS011;63360;50.104;8.074;2022-12-10T02:23:38;18.33;;;6.85;;
74707;SDS011;63360;50.104;8.074;2022-12-10T02:29:17;19.83;;;7.97;;
74707;SDS011;63360;50.104;8.074;2022-12-10T02:31:52;17.55;;;7.43;;
74707;SDS011;63360;50.104;8.074;2022-12-10T02:34:22;21.67;;;7.10;;
74707;SDS011;63360;50.104;8.074;2022-12-10T02:36:52;18.27;;;6.55;;
74707;SDS011;63360;50.104;8.074;2022-12-10T02:39:23;16.87;;;6.23;;
74707;SDS011;63360;50.104;8.074;2022-12-10T02:41:53;18.80;;;6.75;;
74707;SDS011;63360;50.104;8.074;2022-12-10T02:44:21;16.45;;;6.15;;
74707;SDS011;63360;50.104;8.074;2022-12-10T02:46:51;16.48;;;6.18;;
74707;SDS011;63360;50.104;8.074;2022-12-10T02:49:19;16.48;;;6.82;;
74707;SDS011;63360;50.104;8.074;2022-12-10T02:51:47;18.77;;;6.50;;
74707;SDS011;63360;50.104;8.074;2022-12-10T02:54:33;19.73;;;6.68;;
74707;SDS011;63360;50.104;8.074;2022-12-10T02:57:12;16.80;;;6.93;;
74707;SDS011;63360;50.104;8.074;2022-12-10T02:59:47;17.15;;;5.97;;
74707;SDS011;63360;50.104;8.074;2022-12-10T03:05:54;16.87;;;5.77;;
74707;SDS011;63360;50.104;8.074;2022-12-10T03:08:31;17.38;;;6.70;;
74707;SDS011;63360;50.104;8.074;2022-12-10T03:11:06;17.48;;;6.70;;
74707;SDS011;63360;50.104;8.074;2022-12-10T03:13:43;16.02;;;5.72;;
74707;SDS011;63360;50.104;8.074;2022-12-10T03:16:28;14.20;;;5.70;;
74707;SDS011;63360;50.104;8.074;2022-12-10T03:19:01;16.73;;;5.63;;
74707;SDS011;63360;50.104;8.074;2022-12-10T03:21:32;14.93;;;5.70;;
74707;SDS011;63360;50.104;8.074;2022-12-10T03:24:01;15.07;;;6.00;;
74707;SDS011;63360;50.104;8.074;2022-12-10T03:26:28;16.70;;;5.93;;
74707;SDS011;63360;50.104;8.074;2022-12-10T03:28:58;15.60;;;6.07;;
74707;SDS011;63360;50.104;8.074;2022-12-10T03:31:32;16.50;;;6.17;;
74707;SDS011;63360;50.104;8.074;2022-12-10T03:34:01;13.95;;;4.97;;
74707;SDS011;63360;50.104;8.074;2022-12-10T03:36:28;14.85;;;5.40;;
74707;SDS011;63360;50.104;8.074;2022-12-10T03:38:56;15.07;;;6.03;;
74707;SDS011;63360;50.104;8.074;2022-12-10T03:41:23;14.15;;;5.50;;
74707;SDS011;63360;50.104;8.074;2022-12-10T03:43:51;16.20;;;6.03;;
74707;SDS011;63360;50.104;8.074;2022-12-10T03:46:18;14.85;;;4.88;;
74707;SDS011;63360;50.104;8.074;2022-12-10T03:48:44;16.05;;;5.32;;
74707;SDS011;63360;50.104;8.074;2022-12-10T03:51:11;14.15;;;5.18;;
74707;SDS011;63360;50.104;8.074;2022-12-10T03:53:37;15.52;;;5.70;;
74707;SDS011;63360;50.104;8.074;2022-12-10T03:56:04;14.63;;;5.77;;
74707;SDS011;63360;50.104;8.074;2022-12-10T03:58:30;15.13;;;5.68;;
74707;SDS011;63360;50.104;8.074;2022-12-10T04:00:56;13.18;;;5.35;;
74707;SDS011;63360;50.104;8.074;2022-12-10T04:03:23;12.93;;;5.03;;
74707;SDS011;63360;50.104;8.074;2022-12-10T04:05:50;14.10;;;5.63;;
74707;SDS011;63360;50.104;8.074;2022-12-10T04:08:16;13.37;;;4.87;;
74707;SDS011;63360;50.104;8.074;2022-12-10T04:10:43;14.50;;;5.38;;
74707;SDS011;63360;50.104;8.074;2022-12-10T04:13:09;13.45;;;5.30;;
74707;SDS011;63360;50.104;8.074;2022-12-10T04:15:56;14.38;;;5.22;;
74707;SDS011;63360;50.104;8.074;2022-12-10T04:18:41;13.85;;;5.45;;
74707;SDS011;63360;50.104;8.074;2022-12-10T04:21:07;12.97;;;5.00;;
74707;SDS011;63360;50.104;8.074;2022-12-10T04:23:52;14.07;;;5.15;;
74707;SDS011;63360;50.104;8.074;2022-12-10T04:26:37;14.43;;;5.97;;
74707;SDS011;63360;50.104;8.074;2022-12-10T04:29:20;13.68;;;4.75;;
74707;SDS011;63360;50.104;8.074;2022-12-10T04:31:48;12.80;;;5.07;;
74707;SDS011;63360;50.104;8.074;2022-12-10T04:34:14;13.00;;;4.73;;
74707;SDS011;63360;50.104;8.074;2022-12-10T04:36:41;14.68;;;5.18;;
74707;SDS011;63360;50.104;8.074;2022-12-10T04:39:08;14.15;;;5.60;;
74707;SDS011;63360;50.104;8.074;2022-12-10T04:41:34;13.10;;;4.90;;
74707;SDS011;63360;50.104;8.074;2022-12-10T04:44:01;13.45;;;5.05;;
74707;SDS011;63360;50.104;8.074;2022-12-10T04:46:27;12.93;;;4.90;;
74707;SDS011;63360;50.104;8.074;2022-12-10T04:48:54;12.63;;;5.25;;
74707;SDS011;63360;50.104;8.074;2022-12-10T04:51:20;13.25;;;5.45;;
74707;SDS011;63360;50.104;8.074;2022-12-10T04:53:46;13.85;;;5.10;;
74707;SDS011;63360;50.104;8.074;2022-12-10T04:56:13;13.68;;;5.05;;
74707;SDS011;63360;50.104;8.074;2022-12-10T04:58:39;14.90;;;5.30;;
74707;SDS011;63360;50.104;8.074;2022-12-10T05:01:07;13.30;;;5.07;;
74707;SDS011;63360;50.104;8.074;2022-12-10T05:03:34;12.73;;;5.03;;
74707;SDS011;63360;50.104;8.074;2022-12-10T05:06:02;12.88;;;4.75;;
74707;SDS011;63360;50.104;8.074;2022-12-10T05:08:31;12.57;;;4.68;;
74707;SDS011;63360;50.104;8.074;2022-12-10T05:11:01;14.93;;;5.73;;
74707;SDS011;63360;50.104;8.074;2022-12-10T05:13:32;12.93;;;4.97;;
74707;SDS011;63360;50.104;8.074;2022-12-10T05:16:01;12.82;;;4.75;;
74707;SDS011;63360;50.104;8.074;2022-12-10T05:18:28;12.35;;;4.80;;
74707;SDS011;63360;50.104;8.074;2022-12-10T05:20:57;14.65;;;5.10;;
74707;SDS011;63360;50.104;8.074;2022-12-10T05:23:25;13.17;;;5.03;;
74707;SDS011;63360;50.104;8.074;2022-12-10T05:26:07;12.07;;;4.97;;
74707;SDS011;63360;50.104;8.074;2022-12-10T05:28:37;15.13;;;5.57;;
74707;SDS011;63360;50.104;8.074;2022-12-10T05:31:05;13.10;;;5.05;;
74707;SDS011;63360;50.104;8.074;2022-12-10T05:33:37;12.25;;;4.93;;
74707;SDS011;63360;50.104;8.074;2022-12-10T05:36:03;13.03;;;4.50;;
74707;SDS011;63360;50.104;8.074;2022-12-10T05:38:31;13.10;;;5.32;;
74707;SDS011;63360;50.104;8.074;2022-12-10T05:41:05;12.85;;;5.15;;
74707;SDS011;63360;50.104;8.074;2022-12-10T05:43:35;12.55;;;4.70;;
74707;SDS011;63360;50.104;8.074;2022-12-10T05:46:01;12.63;;;5.10;;
74707;SDS011;63360;50.104;8.074;2022-12-10T05:48:30;12.67;;;4.67;;
74707;SDS011;63360;50.104;8.074;2022-12-10T05:50:58;13.10;;;4.68;;
74707;SDS011;63360;50.104;8.074;2022-12-10T05:53:24;12.05;;;4.68;;
74707;SDS011;63360;50.104;8.074;2022-12-10T05:55:58;13.73;;;4.75;;
74707;SDS011;63360;50.104;8.074;2022-12-10T05:58:26;12.43;;;4.65;;
74707;SDS011;63360;50.104;8.074;2022-12-10T06:00:54;13.67;;;5.10;;
74707;SDS011;63360;50.104;8.074;2022-12-10T06:03:21;12.77;;;4.70;;
74707;SDS011;63360;50.104;8.074;2022-12-10T06:05:48;11.98;;;4.60;;
74707;SDS011;63360;50.104;8.074;2022-12-10T06:08:14;14.45;;;4.55;;
74707;SDS011;63360;50.104;8.074;2022-12-10T06:10:40;13.00;;;4.70;;
74707;SDS011;63360;50.104;8.074;2022-12-10T06:13:07;10.83;;;4.53;;
74707;SDS011;63360;50.104;8.074;2022-12-10T06:15:33;12.77;;;4.80;;
74707;SDS011;63360;50.104;8.074;2022-12-10T06:18:00;13.73;;;4.70;;
74707;SDS011;63360;50.104;8.074;2022-12-10T06:20:27;11.20;;;4.68;;
74707;SDS011;63360;50.104;8.074;2022-12-10T06:22:53;11.68;;;4.60;;
74707;SDS011;63360;50.104;8.074;2022-12-10T06:25:19;11.90;;;4.83;;
74707;SDS011;63360;50.104;8.074;2022-12-10T06:27:46;12.93;;;5.05;;
74707;SDS011;63360;50.104;8.074;2022-12-10T06:30:13;14.15;;;5.07;;
74707;SDS011;63360;50.104;8.074;2022-12-10T06:32:40;12.93;;;5.05;;
74707;SDS011;63360;50.104;8.074;2022-12-10T06:35:09;14.32;;;5.80;;
74707;SDS011;63360;50.104;8.074;2022-12-10T06:37:36;17.37;;;6.30;;
74707;SDS011;63360;50.104;8.074;2022-12-10T06:40:03;13.63;;;5.43;;
74707;SDS011;63360;50.104;8.074;2022-12-10T06:42:30;12.70;;;5.15;;
74707;SDS011;63360;50.104;8.074;2022-12-10T06:44:56;14.15;;;5.18;;
74707;SDS011;63360;50.104;8.074;2022-12-10T06:47:23;12.63;;;5.20;;
74707;SDS011;63360;50.104;8.074;2022-12-10T06:49:49;12.67;;;4.93;;
74707;SDS011;63360;50.104;8.074;2022-12-10T06:52:16;15.68;;;5.68;;
74707;SDS011;63360;50.104;8.074;2022-12-10T06:54:42;13.05;;;5.05;;
74707;SDS011;63360;50.104;8.074;2022-12-10T06:57:08;12.35;;;5.20;;
74707;SDS011;63360;50.104;8.074;2022-12-10T06:59:35;12.27;;;4.78;;
74707;SDS011;63360;50.104;8.074;2022-12-10T07:02:01;12.67;;;5.33;;
74707;SDS011;63360;50.104;8.074;2022-12-10T07:04:30;12.73;;;4.50;;
74707;SDS011;63360;50.104;8.074;2022-12-10T07:06:56;13.30;;;4.78;;
74707;SDS011;63360;50.104;8.074;2022-12-10T07:09:22;13.30;;;5.20;;
74707;SDS011;63360;50.104;8.074;2022-12-10T07:11:50;12.23;;;4.60;;
74707;SDS011;63360;50.104;8.074;2022-12-10T07:14:16;28.27;;;12.77;;
74707;SDS011;63360;50.104;8.074;2022-12-10T07:16:44;16.60;;;6.75;;
74707;SDS011;63360;50.104;8.074;2022-12-10T07:19:10;14.02;;;5.68;;
74707;SDS011;63360;50.104;8.074;2022-12-10T07:21:39;11.98;;;4.03;;
74707;SDS011;63360;50.104;8.074;2022-12-10T07:24:10;16.25;;;5.40;;
74707;SDS011;63360;50.104;8.074;2022-12-10T07:26:41;11.27;;;4.00;;
74707;SDS011;63360;50.104;8.074;2022-12-10T07:29:12;11.43;;;4.22;;
74707;SDS011;63360;50.104;8.074;2022-12-10T07:31:40;14.25;;;4.78;;
74707;SDS011;63360;50.104;8.074;2022-12-10T07:34:08;14.45;;;5.05;;
74707;SDS011;63360;50.104;8.074;2022-12-10T07:36:35;17.08;;;4.93;;
74707;SDS011;63360;50.104;8.074;2022-12-10T07:39:04;12.20;;;4.80;;
74707;SDS011;63360;50.104;8.074;2022-12-10T07:41:32;13.45;;;4.88;;
74707;SDS011;63360;50.104;8.074;2022-12-10T07:43:59;12.35;;;4.35;;
74707;SDS011;63360;50.104;8.074;2022-12-10T07:46:29;14.35;;;5.25;;
74707;SDS011;63360;50.104;8.074;2022-12-10T07:48:59;13.70;;;5.30;;
74707;SDS011;63360;50.104;8.074;2022-12-10T07:51:27;10.80;;;4.40;;
74707;SDS011;63360;50.104;8.074;2022-12-10T07:53:54;13.43;;;4.68;;
74707;SDS011;63360;50.104;8.074;2022-12-10T07:56:21;14.60;;;5.00;;
74707;SDS011;63360;50.104;8.074;2022-12-10T07:58:48;14.82;;;5.15;;
74707;SDS011;63360;50.104;8.074;2022-12-10T08:01:15;14.07;;;4.97;;
74707;SDS011;63360;50.104;8.074;2022-12-10T08:03:44;14.43;;;4.97;;
74707;SDS011;63360;50.104;8.074;2022-12-10T08:06:12;12.43;;;4.75;;
74707;SDS011;63360;50.104;8.074;2022-12-10T08:08:41;11.98;;;4.93;;
74707;SDS011;63360;50.104;8.074;2022-12-10T08:11:08;15.32;;;5.03;;
74707;SDS011;63360;50.104;8.074;2022-12-10T08:13:36;17.65;;;5.28;;
74707;SDS011;63360;50.104;8.074;2022-12-10T08:18:30;13.05;;;4.53;;
74707;SDS011;63360;50.104;8.074;2022-12-10T08:20:57;13.13;;;4.90;;
74707;SDS011;63360;50.104;8.074;2022-12-10T08:23:24;12.40;;;4.90;;
74707;SDS011;63360;50.104;8.074;2022-12-10T08:25:50;12.65;;;5.05;;
74707;SDS011;63360;50.104;8.074;2022-12-10T08:28:17;13.20;;;5.10;;
74707;SDS011;63360;50.104;8.074;2022-12-10T08:30:47;12.02;;;4.60;;
74707;SDS011;63360;50.104;8.074;2022-12-10T08:33:14;14.90;;;5.57;;
74707;SDS011;63360;50.104;8.074;2022-12-10T08:35:41;13.80;;;4.82;;
74707;SDS011;63360;50.104;8.074;2022-12-10T08:38:07;12.98;;;4.28;;
74707;SDS011;63360;50.104;8.074;2022-12-10T08:40:34;12.43;;;4.57;;
74707;SDS011;63360;50.104;8.074;2022-12-10T08:43:00;12.85;;;5.15;;
74707;SDS011;63360;50.104;8.074;2022-12-10T08:45:26;14.02;;;5.10;;
74707;SDS011;63360;50.104;8.074;2022-12-10T08:47:53;13.35;;;5.13;;
74707;SDS011;63360;50.104;8.074;2022-12-10T08:50:19;13.13;;;5.32;;
74707;SDS011;63360;50.104;8.074;2022-12-10T08:52:46;14.10;;;5.03;;
74707;SDS011;63360;50.104;8.074;2022-12-10T08:55:13;13.20;;;5.00;;
74707;SDS011;63360;50.104;8.074;2022-12-10T08:57:39;13.07;;;5.32;;
74707;SDS011;63360;50.104;8.074;2022-12-10T09:00:06;13.50;;;4.53;;
74707;SDS011;63360;50.104;8.074;2022-12-10T09:02:33;14.57;;;5.32;;
74707;SDS011;63360;50.104;8.074;2022-12-10T09:05:00;14.40;;;5.00;;
74707;SDS011;63360;50.104;8.074;2022-12-10T09:07:27;15.38;;;5.47;;
74707;SDS011;63360;50.104;8.074;2022-12-10T09:09:53;13.52;;;4.72;;
74707;SDS011;63360;50.104;8.074;2022-12-10T09:12:19;11.45;;;4.35;;
74707;SDS011;63360;50.104;8.074;2022-12-10T09:14:46;11.45;;;4.63;;
74707;SDS011;63360;50.104;8.074;2022-12-10T09:17:12;12.07;;;4.63;;
74707;SDS011;63360;50.104;8.074;2022-12-10T09:19:39;12.10;;;4.85;;
74707;SDS011;63360;50.104;8.074;2022-12-10T09:22:05;13.15;;;5.72;;
74707;SDS011;63360;50.104;8.074;2022-12-10T09:24:31;14.05;;;5.50;;
74707;SDS011;63360;50.104;8.074;2022-12-10T09:26:59;13.73;;;5.22;;
74707;SDS011;63360;50.104;8.074;2022-12-10T09:29:26;13.13;;;5.17;;
74707;SDS011;63360;50.104;8.074;2022-12-10T09:31:52;14.30;;;5.28;;
74707;SDS011;63360;50.104;8.074;2022-12-10T09:34:19;14.40;;;5.60;;
74707;SDS011;63360;50.104;8.074;2022-12-10T09:36:45;13.00;;;5.05;;
74707;SDS011;63360;50.104;8.074;2022-12-10T09:39:11;12.98;;;4.70;;
74707;SDS011;63360;50.104;8.074;2022-12-10T09:47:20;12.38;;;4.68;;
74707;SDS011;63360;50.104;8.074;2022-12-10T09:52:47;11.43;;;4.20;;
74707;SDS011;63360;50.104;8.074;2022-12-10T09:55:16;11.00;;;3.87;;
74707;SDS011;63360;50.104;8.074;2022-12-10T09:57:46;10.20;;;4.28;;
74707;SDS011;63360;50.104;8.074;2022-12-10T10:00:17;12.25;;;4.32;;
74707;SDS011;63360;50.104;8.074;2022-12-10T10:02:47;12.23;;;4.35;;
74707;SDS011;63360;50.104;8.074;2022-12-10T10:05:20;11.00;;;4.32;;
74707;SDS011;63360;50.104;8.074;2022-12-10T10:07:51;10.23;;;3.83;;
74707;SDS011;63360;50.104;8.074;2022-12-10T10:10:24;11.43;;;4.50;;
74707;SDS011;63360;50.104;8.074;2022-12-10T10:12:52;9.32;;;3.60;;
74707;SDS011;63360;50.104;8.074;2022-12-10T10:15:24;10.68;;;4.32;;
74707;SDS011;63360;50.104;8.074;2022-12-10T10:17:56;9.93;;;3.90;;
74707;SDS011;63360;50.104;8.074;2022-12-10T10:20:24;10.93;;;3.70;;
74707;SDS011;63360;50.104;8.074;2022-12-10T10:22:51;12.43;;;4.32;;
74707;SDS011;63360;50.104;8.074;2022-12-10T10:25:22;9.80;;;3.58;;
74707;SDS011;63360;50.104;8.074;2022-12-10T10:27:48;10.32;;;4.10;;
74707;SDS011;63360;50.104;8.074;2022-12-10T10:30:18;10.77;;;4.05;;
74707;SDS011;63360;50.104;8.074;2022-12-10T10:32:48;13.47;;;4.17;;
74707;SDS011;63360;50.104;8.074;2022-12-10T10:35:32;9.57;;;3.42;;
74707;SDS011;63360;50.104;8.074;2022-12-10T10:38:08;10.95;;;4.20;;
74707;SDS011;63360;50.104;8.074;2022-12-10T10:40:44;10.75;;;4.55;;
74707;SDS011;63360;50.104;8.074;2022-12-10T10:43:38;11.23;;;4.65;;
74707;SDS011;63360;50.104;8.074;2022-12-10T10:48:47;10.95;;;4.13;;
74707;SDS011;63360;50.104;8.074;2022-12-10T10:56:21;11.95;;;4.95;;
74707;SDS011;63360;50.104;8.074;2022-12-10T11:01:23;10.35;;;3.95;;
74707;SDS011;63360;50.104;8.074;2022-12-10T11:03:55;9.88;;;3.63;;
74707;SDS011;63360;50.104;8.074;2022-12-10T11:06:24;10.45;;;3.90;;
74707;SDS011;63360;50.104;8.074;2022-12-10T11:08:53;11.07;;;3.75;;
74707;SDS011;63360;50.104;8.074;2022-12-10T11:11:41;10.43;;;4.10;;
74707;SDS011;63360;50.104;8.074;2022-12-10T11:14:29;9.65;;;4.03;;
74707;SDS011;63360;50.104;8.074;2022-12-10T11:20:16;7.35;;;2.60;;
74707;SDS011;63360;50.104;8.074;2022-12-10T11:23:08;6.78;;;2.60;;
74707;SDS011;63360;50.104;8.074;2022-12-10T11:34:14;8.70;;;3.40;;
74707;SDS011;63360;50.104;8.074;2022-12-10T11:36:46;8.80;;;3.50;;
74707;SDS011;63360;50.104;8.074;2022-12-10T11:44:37;10.23;;;3.53;;
74707;SDS011;63360;50.104;8.074;2022-12-10T11:55:27;8.82;;;3.25;;
74707;SDS011;63360;50.104;8.074;2022-12-10T12:00:53;9.60;;;3.67;;
74707;SDS011;63360;50.104;8.074;2022-12-10T12:09:20;9.02;;;3.55;;
74707;SDS011;63360;50.104;8.074;2022-12-10T12:12:11;9.38;;;3.17;;
74707;SDS011;63360;50.104;8.074;2022-12-10T12:15:02;7.65;;;3.00;;
74707;SDS011;63360;50.104;8.074;2022-12-10T12:17:41;7.63;;;3.13;;
74707;SDS011;63360;50.104;8.074;2022-12-10T12:25:47;8.85;;;3.17;;
74707;SDS011;63360;50.104;8.074;2022-12-10T12:31:03;9.00;;;3.33;;
74707;SDS011;63360;50.104;8.074;2022-12-10T12:33:45;8.90;;;3.43;;
74707;SDS011;63360;50.104;8.074;2022-12-10T12:36:17;7.75;;;3.05;;
74707;SDS011;63360;50.104;8.074;2022-12-10T12:38:53;8.25;;;3.20;;
74707;SDS011;63360;50.104;8.074;2022-12-10T12:44:09;8.43;;;3.17;;
74707;SDS011;63360;50.104;8.074;2022-12-10T12:46:43;8.27;;;3.40;;
74707;SDS011;63360;50.104;8.074;2022-12-10T12:52:02;8.95;;;3.47;;
74707;SDS011;63360;50.104;8.074;2022-12-10T12:54:50;8.77;;;3.67;;
74707;SDS011;63360;50.104;8.074;2022-12-10T13:00:15;10.30;;;3.53;;
74707;SDS011;63360;50.104;8.074;2022-12-10T13:05:33;9.07;;;3.90;;
74707;SDS011;63360;50.104;8.074;2022-12-10T13:10:45;9.95;;;3.72;;
74707;SDS011;63360;50.104;8.074;2022-12-10T13:40:23;10.60;;;4.47;;
74707;SDS011;63360;50.104;8.074;2022-12-10T13:42:56;11.43;;;4.18;;
74707;SDS011;63360;50.104;8.074;2022-12-10T13:46:20;9.75;;;4.20;;
74707;SDS011;63360;50.104;8.074;2022-12-10T13:48:49;11.43;;;4.50;;
74707;SDS011;63360;50.104;8.074;2022-12-10T13:51:33;12.98;;;5.00;;
74707;SDS011;63360;50.104;8.074;2022-12-10T14:00:20;12.95;;;5.05;;
74707;SDS011;63360;50.104;8.074;2022-12-10T14:08:15;10.43;;;4.33;;
74707;SDS011;63360;50.104;8.074;2022-12-10T14:10:46;12.52;;;4.30;;
74707;SDS011;63360;50.104;8.074;2022-12-10T14:13:15;12.80;;;4.80;;
74707;SDS011;63360;50.104;8.074;2022-12-10T14:15:46;11.80;;;4.90;;
74707;SDS011;63360;50.104;8.074;2022-12-10T14:18:21;14.50;;;4.97;;
74707;SDS011;63360;50.104;8.074;2022-12-10T14:20:50;13.90;;;4.83;;
74707;SDS011;63360;50.104;8.074;2022-12-10T14:23:29;13.90;;;5.10;;
74707;SDS011;63360;50.104;8.074;2022-12-10T14:26:09;12.63;;;5.10;;
74707;SDS011;63360;50.104;8.074;2022-12-10T14:28:38;13.32;;;4.93;;
74707;SDS011;63360;50.104;8.074;2022-12-10T14:31:10;13.73;;;5.20;;
74707;SDS011;63360;50.104;8.074;2022-12-10T14:33:43;14.87;;;5.20;;
74707;SDS011;63360;50.104;8.074;2022-12-10T14:36:16;13.77;;;5.28;;
74707;SDS011;63360;50.104;8.074;2022-12-10T14:38:50;13.18;;;5.63;;
74707;SDS011;63360;50.104;8.074;2022-12-10T14:41:19;13.50;;;5.55;;
74707;SDS011;63360;50.104;8.074;2022-12-10T14:43:47;11.48;;;4.65;;
74707;SDS011;63360;50.104;8.074;2022-12-10T14:46:18;12.37;;;4.63;;
74707;SDS011;63360;50.104;8.074;2022-12-10T14:48:51;13.30;;;4.88;;
74707;SDS011;63360;50.104;8.074;2022-12-10T14:51:22;13.02;;;5.20;;
74707;SDS011;63360;50.104;8.074;2022-12-10T14:53:53;13.52;;;5.35;;
74707;SDS011;63360;50.104;8.074;2022-12-10T14:56:25;14.82;;;5.82;;
74707;SDS011;63360;50.104;8.074;2022-12-10T14:59:02;14.43;;;5.50;;
74707;SDS011;63360;50.104;8.074;2022-12-10T15:01:37;15.50;;;5.30;;
74707;SDS011;63360;50.104;8.074;2022-12-10T15:04:07;14.70;;;5.70;;
74707;SDS011;63360;50.104;8.074;2022-12-10T15:06:39;15.75;;;5.50;;
74707;SDS011;63360;50.104;8.074;2022-12-10T15:09:10;15.63;;;5.63;;
74707;SDS011;63360;50.104;8.074;2022-12-10T15:11:44;15.50;;;5.70;;
74707;SDS011;63360;50.104;8.074;2022-12-10T15:14:16;17.35;;;6.38;;
74707;SDS011;63360;50.104;8.074;2022-12-10T15:16:46;15.05;;;5.50;;
74707;SDS011;63360;50.104;8.074;2022-12-10T15:22:37;15.88;;;6.20;;
74707;SDS011;63360;50.104;8.074;2022-12-10T15:24:45;16.00;;;5.97;;
74707;SDS011;63360;50.104;8.074;2022-12-10T15:27:14;15.88;;;6.13;;
74707;SDS011;63360;50.104;8.074;2022-12-10T15:29:43;16.25;;;6.35;;
74707;SDS011;63360;50.104;8.074;2022-12-10T15:32:13;15.77;;;6.00;;
74707;SDS011;63360;50.104;8.074;2022-12-10T15:34:52;16.38;;;6.78;;
74707;SDS011;63360;50.104;8.074;2022-12-10T15:37:22;17.37;;;6.33;;
74707;SDS011;63360;50.104;8.074;2022-12-10T15:39:52;16.63;;;6.32;;
74707;SDS011;63360;50.104;8.074;2022-12-10T15:45:23;16.92;;;6.20;;
74707;SDS011;63360;50.104;8.074;2022-12-10T15:48:03;17.77;;;6.05;;
74707;SDS011;63360;50.104;8.074;2022-12-10T15:50:38;16.53;;;6.20;;
74707;SDS011;63360;50.104;8.074;2022-12-10T15:53:10;17.75;;;6.80;;
74707;SDS011;63360;50.104;8.074;2022-12-10T15:55:40;17.33;;;7.00;;
74707;SDS011;63360;50.104;8.074;2022-12-10T15:58:13;19.20;;;7.10;;
74707;SDS011;63360;50.104;8.074;2022-12-10T16:00:40;18.45;;;6.85;;
74707;SDS011;63360;50.104;8.074;2022-12-10T16:03:11;19.43;;;6.77;;
74707;SDS011;63360;50.104;8.074;2022-12-10T16:05:39;18.48;;;6.65;;
74707;SDS011;63360;50.104;8.074;2022-12-10T16:10:42;19.13;;;7.15;;
74707;SDS011;63360;50.104;8.074;2022-12-10T16:13:20;19.58;;;7.38;;
74707;SDS011;63360;50.104;8.074;2022-12-10T16:15:53;18.80;;;6.83;;
74707;SDS011;63360;50.104;8.074;2022-12-10T16:18:23;20.77;;;7.13;;
74707;SDS011;63360;50.104;8.074;2022-12-10T16:20:57;19.73;;;7.18;;
74707;SDS011;63360;50.104;8.074;2022-12-10T16:23:23;20.20;;;7.65;;
74707;SDS011;63360;50.104;8.074;2022-12-10T16:25:50;18.80;;;7.30;;
74707;SDS011;63360;50.104;8.074;2022-12-10T16:28:17;19.27;;;7.30;;
74707;SDS011;63360;50.104;8.074;2022-12-10T16:30:50;19.30;;;7.30;;
74707;SDS011;63360;50.104;8.074;2022-12-10T16:33:21;17.20;;;7.40;;
74707;SDS011;63360;50.104;8.074;2022-12-10T16:35:49;16.38;;;6.68;;
74707;SDS011;63360;50.104;8.074;2022-12-10T16:38:18;18.30;;;7.22;;
74707;SDS011;63360;50.104;8.074;2022-12-10T16:40:46;16.60;;;6.13;;
74707;SDS011;63360;50.104;8.074;2022-12-10T16:43:17;18.77;;;7.22;;
74707;SDS011;63360;50.104;8.074;2022-12-10T16:45:48;21.10;;;7.18;;
74707;SDS011;63360;50.104;8.074;2022-12-10T16:48:15;17.45;;;6.43;;
74707;SDS011;63360;50.104;8.074;2022-12-10T16:50:42;17.95;;;6.63;;
74707;SDS011;63360;50.104;8.074;2022-12-10T16:53:16;17.40;;;6.80;;
74707;SDS011;63360;50.104;8.074;2022-12-10T16:55:43;18.23;;;6.75;;
74707;SDS011;63360;50.104;8.074;2022-12-10T16:58:12;21.77;;;7.28;;
74707;SDS011;63360;50.104;8.074;2022-12-10T17:00:43;19.48;;;7.20;;
74707;SDS011;63360;50.104;8.074;2022-12-10T17:03:11;19.10;;;7.38;;
74707;SDS011;63360;50.104;8.074;2022-12-10T17:05:55;18.90;;;6.77;;
74707;SDS011;63360;50.104;8.074;2022-12-10T17:08:23;19.73;;;7.10;;
74707;SDS011;63360;50.104;8.074;2022-12-10T17:10:51;20.55;;;7.72;;
74707;SDS011;63360;50.104;8.074;2022-12-10T17:13:37;21.77;;;7.75;;
74707;SDS011;63360;50.104;8.074;2022-12-10T17:16:06;21.52;;;7.50;;